Etusivu
METAR-TAF:

METAR-TAF

Lentoasemat :

Ankara Esenboğa, Turkki

Leveyspiiri: 40-07N, Pituuspiiri: 032-59E, korkeus merenpinnasta: 953 m

Tämänhetkinen sää

Tämä raportti tehtiin 29 minuuttia sitten, kello 12.50 UTC
Tuuli 1 kn eri suunnista
Lämpötila 21°C
Kosteus 23%
Ilmanpaine 1021 hPa
Näkyvyys 10 km tai enemmän
ei pilviä alle 1500 m:ssä eikä cumulonimbus-pilviä

METAR: LTAC 121250Z VRB01KT CAVOK 21/M01 Q1021 NOSIG RMK RWY21L VRB02KT RWY03L VRB02KT RWY21R 00000KT

Aika: 16:19 (13:19 UTC)

Sääennuste

Tämä raportti tehtiin 2 tuntia ja 39 minuuttia sitten, kello 10.40 UTC
Ennuste voimassa 12. päivästä klo 12 UTC - 13. päivään klo 12 UTC
Tuuli 2 kn eri suunnista
Näkyvyys 10 km tai enemmän
ei pilviä alle 1500 m:ssä eikä cumulonimbus-pilviä
Tulossa
13. päivästä klo 10 UTC - 13. päivään klo 12 UTC
Hajanaisia pilviä 4000 ft:n korkeudessa
Hajonneita pilviä 10000 ft:n korkeudessa

TAF: LTAC 121040Z 1212/1312 VRB02KT CAVOK BECMG 1310/1312 SCT040 BKN100

Säähavainnot ja -ennusteet yli 4000 lentoasemalta (METAR- ja TAF-raportit).

Käytössä olevat sääasemat on merkitty karttaan keltaisilla ja punaisilla pisteillä.

Aseta hiiri pisteen päälle nähdäksesi sääaseman nimen.

Klikkaa sitten nähdäksesi säähavainnot ja -ennusteet.

Kartan vaihtaminen: klikkaa mustalla rastilla varustettuja vihreitä pisteitä, niin voit zoomata sisään; viivalla varustettua vihreää pistettä, niin voit zoomata ulos tai vihreitä nuolia, niin pääset viereisille kartoille.


METAR-TAF: